Cole Camp, MO

7:35 PM CDT on July 28, 2014 (GMT -0500)
cole camp Lincoln (KMOCOLEC2) Elev 905 ft | 38.40 °N, 93.20 °W | Change Station

Current weather conditions updated 3 minutes ago

Clear
Clear
76.1 °F
Feels Like 78 °F
N
0.0
Wind Variable Wind from SSE
Gusts 0.0 mph

Tomorrow is forecast to be nearly the same temperature as today.

Today
High -- | Low -- °F
--% Chance of Precip.
Yesterday
High -- | Low -- °F
Precip. -- in
6:11 AM 8:26 PM
Waxing Crescent, 4% visible
Pressure 30.13 in
Visibility 10.0 miles
Clouds Clear
Heat Index 78 °F
Dew Point 62 °F
Humidity 61%
Rainfall 0.00 in
Snow Depth Not available.
UV 1 out of 12
Pollen 6.70 out of 12
Air Quality Not available.
Flu Activity Not available.
METAR KDMO 282353Z AUTO 36009KT 10SM CLR 25/14 A3014 RMK AO2 SLP201 T02500144 10278 20244 58008

More Conditions Fewer Conditions

Pressure 30.13 in
Visibility 10.0 miles
Clouds Clear
Heat Index 78 °F
Dew Point 62 °F
Humidity 61%
Rainfall 0.00 in
Snow Depth Not available.
UV 1 out of 12
Pollen 6.70 out of 12
Air Quality Not available.
Flu Activity Not available.
METAR KDMO 282353Z AUTO 36009KT 10SM CLR 25/14 A3014 RMK AO2 SLP201 T02500144 10278 20244 58008

More Conditions Fewer Conditions

10-Day Weather Forecast

Almanac

Astronomy

Jul. 28, 2014 Rise Set
Actual Time 6:11 AM CDT 8:26 PM CDT
Civil Twilight 5:41 AM CDT 8:56 PM CDT
Nautical Twilight 5:04 AM CDT 9:32 PM CDT
Astronomical Twilight 4:24 AM CDT 10:12 PM CDT
Moon 7:51 AM CDT (7/28) 9:11 PM CDT (7/28)
Length of Visible Light 15h 14m
Length of Day
14h 15m
Tomorrow will be 1m 46s shorter.
Waxing Crescent, 4% of the Moon is Illuminated
Today
Waxing Crescent
Aug 3
First Quarter
Aug 10
Full
Aug 17
Last Quarter
Aug 25
New

Today's Extremes

State Highs State Lows

Community

WunderPhotos

Upload Photos

1,738,562 photos uploaded!

WunderBlogs® & News

Nearby

Snow Depth

Station Depth Elevation
No new snow has been reported.

Earthquake Activity

City Distance Mag. Time & Date
No recent earthquake activity has been reported nearby.
Minimum magnitude displayed is 2.5.

Coastal Water Temperatures

Place Temperature
No Stations Reporting

Nearby Weather Stations

Station Location Temp. Heat Index Dew Point Humidity Wind Precip. Elev Updated Type
cole camp Lincoln, Cole Camp, MO 76.1 °F 78 °F 62 °F 61% SSE  at  0.0 mph 0.00 in / hr 905 ft 7:31 PM CDT Normal
Rual subdivision, Sedalia, MO 76.8 °F 79 °F 60 °F 56% NNW  at  4.3 mph - / hr 843 ft 7:24 PM CDT Normal
Sedalia, MO 75.3 °F 77 °F 61 °F 61% NE  at  3.0 mph 0.00 in / hr 837 ft 7:35 PM CDT Rapid Fire
Windsor NW, Windsor, MO 74.5 °F 77 °F 62 °F 65% NW  at  0.0 mph 0.00 in / hr 886 ft 7:35 PM CDT Rapid Fire
MesoWest SEDLIA , Sedalia, MO 90 °F 87 °F - - North  at  - 0.00 in / hr 823 ft 5:45 PM CDT MADIS
MesoWest OTRVLE , Syracuse, MO 75 °F 73 °F - - North  at  - 0.00 in / hr 849 ft 6:10 PM CDT MADIS

Show More Stations Show Fewer Stations